Time;durP1;ratioP1;P1;durP2;ratioP2;P2;SDS_P1;SDS_P2;PMS_P1;PMS_P2;Temp;Humidity;BMP_temperature;BMP_pressure;BME280_temperature;BME280_humidity;BME280_pressure;Samples;Min_cycle;Max_cycle;Signal;HPM_P1;HPM_P2
2023/04/08 00:00:18;;;;;;;11.50;10.30;;;;;;;2.78;100.00;-18102.47;4957347;28;20098;-82
2023/04/08 00:02:43;;;;;;;12.65;11.18;;;;;;;2.78;100.00;-18102.59;4953433;28;20496;-82
2023/04/08 00:05:08;;;;;;;11.32;9.52;;;;;;;2.71;100.00;-18100.69;4960026;28;20046;-82
2023/04/08 00:07:34;;;;;;;10.40;9.30;;;;;;;2.63;100.00;-18098.59;4955484;28;20122;-88
2023/04/08 00:09:59;;;;;;;11.48;9.20;;;;;;;2.73;100.00;-18101.22;4954488;28;21881;-81
2023/04/08 00:12:25;;;;;;;10.65;9.25;;;;;;;2.66;100.00;-18099.28;4967798;28;20450;-82
2023/04/08 00:14:50;;;;;;;10.20;9.15;;;;;;;2.59;100.00;-18097.50;4962941;28;20042;-84
2023/04/08 00:17:16;;;;;;;19.13;15.60;;;;;;;2.72;100.00;-18101.09;4954346;28;20122;-83
2023/04/08 00:19:42;;;;;;;15.68;12.25;;;;;;;2.88;100.00;-18105.38;4952156;28;20090;-85
2023/04/08 00:22:07;;;;;;;25.23;20.58;;;;;;;2.96;100.00;-18107.31;4954556;28;20046;-82
2023/04/08 00:24:33;;;;;;;31.10;23.02;;;;;;;3.04;100.00;-18109.53;4956249;28;20043;-82
2023/04/08 00:26:59;;;;;;;33.25;25.52;;;;;;;3.07;100.00;-18110.34;4968777;28;20043;-83
2023/04/08 00:29:25;;;;;;;30.85;22.20;;;;;;;3.12;100.00;-18111.88;4960974;28;20046;-83
2023/04/08 00:31:51;;;;;;;27.70;21.65;;;;;;;2.93;100.00;-18106.75;4952751;28;20042;-83
2023/04/08 00:34:16;;;;;;;35.33;26.27;;;;;;;2.97;100.00;-18107.72;4951323;28;20133;-87
2023/04/08 00:36:42;;;;;;;30.77;24.88;;;;;;;3.10;100.00;-18111.31;4928412;29;20062;-81
2023/04/08 00:39:07;;;;;;;31.17;24.27;;;;;;;3.05;100.00;-18109.78;4950536;28;20054;-83
2023/04/08 00:41:34;;;;;;;35.97;26.55;;;;;;;3.06;100.00;-18110.22;4951965;28;20050;-85
2023/04/08 00:44:00;;;;;;;32.17;24.40;;;;;;;3.10;100.00;-18111.19;4949925;28;20047;-81
2023/04/08 00:46:25;;;;;;;35.83;25.92;;;;;;;3.16;100.00;-18112.84;4959695;28;20122;-86
2023/04/08 00:48:51;;;;;;;39.20;28.02;;;;;;;3.13;100.00;-18112.00;4954866;28;20522;-82
2023/04/08 00:51:17;;;;;;;37.55;26.95;;;;;;;3.24;100.00;-18114.91;4953540;28;20079;-82
2023/04/08 00:53:43;;;;;;;36.78;26.42;;;;;;;3.23;100.00;-18114.63;4968309;28;20043;-84
2023/04/08 00:56:09;;;;;;;35.40;25.85;;;;;;;3.18;100.00;-18113.38;4954648;28;20054;-82
2023/04/08 00:58:34;;;;;;;34.75;26.45;;;;;;;3.21;100.00;-18114.09;4955647;28;20575;-82
2023/04/08 01:01:24;;;;;;;38.38;26.77;;;;;;;3.16;100.00;-18112.97;4959128;28;20419;-84
2023/04/08 01:04:00;;;;;;;45.30;29.95;;;;;;;3.14;100.00;-18112.44;4974538;28;20043;-85
2023/04/08 01:06:41;;;;;;;32.58;24.67;;;;;;;3.06;100.00;-18110.06;4968995;28;20047;-85
2023/04/08 01:09:06;;;;;;;37.97;28.17;;;;;;;3.12;100.00;-18111.72;4945915;28;20407;-82
2023/04/08 01:11:34;;;;;;;37.92;26.92;;;;;;;3.05;100.00;-18109.78;4953505;28;20047;-89
2023/04/08 01:14:05;;;;;;;37.50;28.63;;;;;;;3.06;100.00;-18110.22;4953825;28;20455;-82
2023/04/08 01:16:31;;;;;;;37.00;27.20;;;;;;;2.95;100.00;-18107.16;4960950;28;20030;-84
2023/04/08 01:18:57;;;;;;;39.05;28.33;;;;;;;2.90;100.00;-18105.78;4956466;28;20499;-87
2023/04/08 01:21:23;;;;;;;38.22;28.05;;;;;;;3.00;100.00;-18108.56;4958645;28;20051;-87
2023/04/08 01:24:01;;;;;;;36.17;24.75;;;;;;;2.89;100.00;-18105.66;4955632;28;20065;-82
2023/04/08 01:26:27;;;;;;;36.45;27.60;;;;;;;2.85;100.00;-18104.53;4954049;28;20043;-83
2023/04/08 01:28:57;;;;;;;38.13;27.08;;;;;;;2.83;100.00;-18104.00;4957310;28;20051;-85
2023/04/08 01:31:24;;;;;;;32.00;24.55;;;;;;;2.74;100.00;-18101.50;4954480;28;20499;-81
2023/04/08 01:33:50;;;;;;;40.55;28.67;;;;;;;2.81;100.00;-18103.31;4951107;28;20415;-82
2023/04/08 01:36:17;;;;;;;39.42;28.65;;;;;;;2.86;100.00;-18104.69;4955765;28;20098;-81
2023/04/08 01:38:43;;;;;;;32.47;24.98;;;;;;;2.66;100.00;-18099.44;4949387;28;20031;-82
2023/04/08 01:41:10;;;;;;;34.88;25.75;;;;;;;2.58;100.00;-18097.06;4955839;28;20034;-83
2023/04/08 01:43:37;;;;;;;32.22;25.48;;;;;;;2.40;100.00;-18092.25;4951832;28;20121;-83
2023/04/08 01:46:04;;;;;;;41.30;29.02;;;;;;;2.48;100.00;-18094.44;4956813;28;20043;-81
2023/04/08 01:48:30;;;;;;;38.10;28.38;;;;;;;2.54;100.00;-18096.09;4952821;28;20507;-85
2023/04/08 01:50:56;;;;;;;37.88;29.55;;;;;;;2.52;100.00;-18095.56;4948529;28;20099;-84
2023/04/08 01:53:21;;;;;;;37.22;27.00;;;;;;;2.38;100.00;-18091.69;4955132;28;20050;-85
2023/04/08 01:55:53;;;;;;;39.70;30.17;;;;;;;2.31;100.00;-18089.75;4953067;28;20046;-83
2023/04/08 01:58:20;;;;;;;36.90;29.20;;;;;;;2.23;100.00;-18087.81;4952763;28;20129;-83
2023/04/08 02:00:47;;;;;;;48.05;30.40;;;;;;;2.27;100.00;-18088.78;4953204;28;20143;-83
2023/04/08 02:03:16;;;;;;;41.78;30.00;;;;;;;2.26;100.00;-18088.50;4954267;28;20073;-83
2023/04/08 02:05:41;;;;;;;33.80;26.98;;;;;;;2.21;100.00;-18087.13;4951925;28;20487;-82
2023/04/08 02:08:06;;;;;;;33.70;25.42;;;;;;;2.17;100.00;-18086.00;4958976;28;20077;-82
2023/04/08 02:10:32;;;;;;;40.25;28.88;;;;;;;2.12;100.00;-18084.63;4951626;28;20105;-83
2023/04/08 02:12:57;;;;;;;38.88;28.00;;;;;;;2.10;100.00;-18084.22;4952324;28;20039;-82
2023/04/08 02:15:26;;;;;;;33.83;26.10;;;;;;;2.01;100.00;-18081.88;4954101;28;20039;-83
2023/04/08 02:18:06;;;;;;;34.92;26.75;;;;;;;1.90;100.00;-18078.81;4953543;28;20130;-81
2023/04/08 02:20:37;;;;;;;38.22;31.02;;;;;;;1.74;100.00;-18074.53;4948875;28;20415;-82
2023/04/08 02:23:04;;;;;;;38.03;27.40;;;;;;;1.86;100.00;-18077.56;4964624;28;20277;-82
2023/04/08 02:25:34;;;;;;;38.60;28.20;;;;;;;1.87;100.00;-18077.84;4966889;28;20633;-82
2023/04/08 02:28:03;;;;;;;35.97;27.10;;;;;;;1.88;100.00;-18078.25;4956808;28;20076;-81
2023/04/08 02:30:30;;;;;;;37.42;28.13;;;;;;;1.87;100.00;-18078.00;4954817;28;20058;-84
2023/04/08 02:32:57;;;;;;;36.55;26.95;;;;;;;1.79;100.00;-18075.78;4954918;28;20392;-81
2023/04/08 02:35:23;;;;;;;32.13;25.95;;;;;;;1.76;100.00;-18075.09;4957239;28;20047;-81
2023/04/08 02:37:49;;;;;;;37.10;26.42;;;;;;;1.79;100.00;-18075.78;4952137;28;20039;-82
2023/04/08 02:40:32;;;;;;;32.85;25.30;;;;;;;1.78;100.00;-18075.63;4952481;28;20054;-84
2023/04/08 02:42:58;;;;;;;38.33;26.92;;;;;;;1.77;100.00;-18075.22;4952886;28;20373;-81
2023/04/08 02:45:32;;;;;;;31.90;24.85;;;;;;;1.74;100.00;-18074.53;4963912;28;20041;-82
2023/04/08 02:48:01;;;;;;;30.77;23.60;;;;;;;1.66;100.00;-18072.31;4954799;28;20537;-81
2023/04/08 02:50:26;;;;;;;34.60;25.00;;;;;;;1.74;100.00;-18074.38;4953926;28;20043;-82
2023/04/08 02:52:51;;;;;;;32.15;25.50;;;;;;;1.73;100.00;-18074.13;4958442;28;20404;-81
2023/04/08 02:55:17;;;;;;;34.75;25.15;;;;;;;1.67;100.00;-18072.44;4957374;28;20121;-80
2023/04/08 02:57:42;;;;;;;37.05;27.30;;;;;;;1.65;100.00;-18071.91;4960362;28;20043;-81
2023/04/08 03:00:08;;;;;;;31.75;22.67;;;;;;;1.64;100.00;-18071.75;4959480;28;20055;-81
2023/04/08 03:02:34;;;;;;;33.20;24.45;;;;;;;1.56;100.00;-18069.69;4952605;28;20047;-83
2023/04/08 03:05:00;;;;;;;37.35;25.25;;;;;;;1.60;100.00;-18070.50;4951585;28;20103;-82
2023/04/08 03:07:25;;;;;;;33.65;25.33;;;;;;;1.61;100.00;-18070.78;4950547;28;20047;-80
2023/04/08 03:09:53;;;;;;;39.45;26.60;;;;;;;1.59;100.00;-18070.38;4956481;28;20039;-80
2023/04/08 03:12:19;;;;;;;33.20;24.50;;;;;;;1.53;100.00;-18068.84;4956711;28;20042;-79
2023/04/08 03:14:44;;;;;;;36.10;26.40;;;;;;;1.40;100.00;-18065.25;4953192;28;20128;-80
2023/04/08 03:17:10;;;;;;;36.33;26.00;;;;;;;1.39;100.00;-18064.97;4949887;28;20058;-81
2023/04/08 03:19:35;;;;;;;34.22;24.73;;;;;;;1.37;100.00;-18064.44;4948441;28;20046;-79
2023/04/08 03:22:00;;;;;;;33.13;24.67;;;;;;;1.41;100.00;-18065.53;4950894;28;20557;-81
2023/04/08 03:24:25;;;;;;;31.50;22.98;;;;;;;1.34;100.00;-18063.59;4951788;28;20045;-79
2023/04/08 03:26:51;;;;;;;33.08;24.33;;;;;;;1.20;100.00;-18059.72;4950184;28;20047;-83
2023/04/08 03:29:16;;;;;;;35.50;23.92;;;;;;;1.37;100.00;-18064.44;4954685;28;20130;-81
2023/04/08 03:31:41;;;;;;;34.28;23.15;;;;;;;1.33;100.00;-18063.31;4949961;28;20134;-80
2023/04/08 03:34:07;;;;;;;39.15;27.98;;;;;;;1.34;100.00;-18063.72;4955107;28;20566;-79
2023/04/08 03:36:32;;;;;;;37.17;26.63;;;;;;;1.45;100.00;-18066.63;4950948;28;20039;-80
2023/04/08 03:38:58;;;;;;;43.90;29.83;;;;;;;1.54;100.00;-18069.13;4955486;28;20043;-82
2023/04/08 03:41:23;;;;;;;32.83;24.27;;;;;;;1.43;100.00;-18066.09;4955392;28;20047;-79
2023/04/08 03:43:48;;;;;;;35.00;25.77;;;;;;;1.40;100.00;-18065.13;4951721;28;20050;-80
2023/04/08 03:46:14;;;;;;;34.83;24.08;;;;;;;1.36;100.00;-18064.16;4955980;28;20503;-81
2023/04/08 03:48:39;;;;;;;39.20;27.90;;;;;;;1.55;100.00;-18069.28;4958326;28;20143;-80
2023/04/08 03:51:05;;;;;;;35.55;25.88;;;;;;;1.48;100.00;-18067.34;4954323;28;20521;-79
2023/04/08 03:53:30;;;;;;;37.50;26.60;;;;;;;1.47;100.00;-18067.19;4954924;28;20050;-83
2023/04/08 03:55:56;;;;;;;33.08;24.05;;;;;;;1.28;100.00;-18062.06;4958052;28;20035;-80
2023/04/08 03:58:21;;;;;;;32.80;24.38;;;;;;;1.16;100.00;-18058.63;4959308;28;20046;-80
2023/04/08 04:00:47;;;;;;;33.15;24.38;;;;;;;1.22;100.00;-18060.28;4956324;28;20061;-80
2023/04/08 04:03:12;;;;;;;36.88;26.48;;;;;;;1.27;100.00;-18061.66;4950188;28;20574;-82
2023/04/08 04:05:39;;;;;;;38.22;25.23;;;;;;;1.29;100.00;-18062.34;4956993;28;20078;-79
2023/04/08 04:08:04;;;;;;;35.95;26.10;;;;;;;1.26;100.00;-18061.38;4952016;28;20189;-80
2023/04/08 04:10:30;;;;;;;39.05;25.02;;;;;;;1.25;100.00;-18061.09;4955158;28;20043;-85
2023/04/08 04:12:55;;;;;;;34.92;25.20;;;;;;;1.29;100.00;-18062.34;4954391;28;20122;-79
2023/04/08 04:15:20;;;;;;;36.17;24.50;;;;;;;1.23;100.00;-18060.69;4947914;28;20045;-80
2023/04/08 04:17:49;;;;;;;32.10;22.52;;;;;;;1.18;100.00;-18059.16;4951969;28;20327;-82
2023/04/08 04:20:15;;;;;;;33.47;23.33;;;;;;;1.19;100.00;-18059.44;4959521;28;20082;-81
2023/04/08 04:22:40;;;;;;;33.85;24.98;;;;;;;1.23;100.00;-18060.69;4954812;28;20039;-83
2023/04/08 04:25:06;;;;;;;33.88;24.02;;;;;;;1.23;100.00;-18060.69;4953530;28;20067;-80
2023/04/08 04:27:32;;;;;;;32.63;23.30;;;;;;;1.01;100.00;-18054.59;4960538;28;20258;-79
2023/04/08 04:29:57;;;;;;;36.13;26.38;;;;;;;1.00;100.00;-18054.47;4949067;28;20385;-79
2023/04/08 04:32:22;;;;;;;34.38;25.98;;;;;;;1.11;100.00;-18057.38;4970763;28;20043;-81
2023/04/08 04:34:48;;;;;;;35.53;26.27;;;;;;;0.97;100.00;-18053.63;4952730;28;20071;-80
2023/04/08 04:37:13;;;;;;;34.47;25.65;;;;;;;1.02;100.00;-18055.00;4954306;28;20051;-80
2023/04/08 04:39:39;;;;;;;38.38;26.50;;;;;;;1.09;100.00;-18056.94;4953942;28;20043;-80
2023/04/08 04:42:05;;;;;;;37.30;26.50;;;;;;;1.15;100.00;-18058.47;4952312;28;20061;-80
2023/04/08 04:44:30;;;;;;;34.72;25.17;;;;;;;1.06;100.00;-18056.13;4955502;28;20047;-79
2023/04/08 04:46:56;;;;;;;35.83;24.73;;;;;;;1.05;100.00;-18055.84;4952444;28;20048;-79
2023/04/08 04:49:21;;;;;;;37.60;26.77;;;;;;;1.06;100.00;-18056.13;4952572;28;20098;-80
2023/04/08 04:51:46;;;;;;;40.78;25.88;;;;;;;1.09;100.00;-18056.94;4954769;28;20071;-80
2023/04/08 04:54:12;;;;;;;36.67;25.60;;;;;;;1.17;100.00;-18058.88;4953599;28;20047;-79
2023/04/08 04:56:37;;;;;;;37.50;25.42;;;;;;;1.16;100.00;-18058.63;4954987;28;20043;-79
2023/04/08 04:59:04;;;;;;;34.67;25.25;;;;;;;1.12;100.00;-18057.78;4952393;28;20535;-80
2023/04/08 05:01:29;;;;;;;39.15;26.13;;;;;;;1.20;100.00;-18059.72;4951184;28;20043;-80
2023/04/08 05:03:55;;;;;;;37.53;26.42;;;;;;;1.28;100.00;-18061.94;4952491;28;20495;-80
2023/04/08 05:06:22;;;;;;;40.83;27.48;;;;;;;1.34;100.00;-18063.59;4954288;28;20134;-79
2023/04/08 05:08:47;;;;;;;38.45;26.67;;;;;;;1.40;100.00;-18065.25;4952106;28;20046;-81
2023/04/08 05:11:13;;;;;;;37.95;26.98;;;;;;;1.48;100.00;-18067.47;4950515;28;20039;-80
2023/04/08 05:13:38;;;;;;;39.55;27.35;;;;;;;1.52;100.00;-18068.44;4955512;28;20404;-79
2023/04/08 05:16:03;;;;;;;35.60;26.73;;;;;;;1.56;100.00;-18069.69;4951899;28;20051;-80
2023/04/08 05:18:29;;;;;;;37.58;27.45;;;;;;;1.55;100.00;-18069.41;4952005;28;20058;-79
2023/04/08 05:20:54;;;;;;;38.85;27.52;;;;;;;1.65;100.00;-18071.91;4953442;28;20507;-80
2023/04/08 05:23:20;;;;;;;37.63;26.88;;;;;;;1.67;100.00;-18072.44;4956780;28;20498;-80
2023/04/08 05:25:45;;;;;;;40.75;27.23;;;;;;;1.76;100.00;-18074.94;4951392;28;20050;-79
2023/04/08 05:28:11;;;;;;;42.67;30.48;;;;;;;1.81;100.00;-18076.31;4952920;28;20070;-79
2023/04/08 05:30:36;;;;;;;58.67;37.30;;;;;;;1.89;100.00;-18078.41;4952431;28;20110;-79
2023/04/08 05:33:01;;;;;;;85.68;61.88;;;;;;;1.89;100.00;-18078.41;4955746;28;20077;-80
2023/04/08 05:35:27;;;;;;;60.72;43.58;;;;;;;1.94;100.00;-18079.94;4966529;28;20097;-81
2023/04/08 05:37:53;;;;;;;64.07;45.22;;;;;;;2.02;100.00;-18082.13;4960752;28;20052;-81
2023/04/08 05:40:18;;;;;;;53.03;37.38;;;;;;;2.03;100.00;-18082.28;4955648;28;20099;-78
2023/04/08 05:42:44;;;;;;;45.58;34.20;;;;;;;2.14;100.00;-18085.31;4949927;28;20819;-78
2023/04/08 05:45:10;;;;;;;39.10;27.75;;;;;;;2.23;100.00;-18087.81;4956522;28;20043;-78
2023/04/08 05:47:35;;;;;;;42.05;29.88;;;;;;;2.33;100.00;-18090.28;4951565;28;20249;-80
2023/04/08 05:50:00;;;;;;;36.40;26.15;;;;;;;2.35;100.00;-18090.84;4951712;28;20403;-80
2023/04/08 05:52:26;;;;;;;31.63;24.80;;;;;;;2.38;100.00;-18091.81;4962997;28;20051;-78
2023/04/08 05:54:51;;;;;;;28.15;21.65;;;;;;;2.38;100.00;-18091.81;4952817;28;20058;-78
2023/04/08 05:57:16;;;;;;;33.55;23.13;;;;;;;2.47;100.00;-18094.16;4951589;28;20051;-79
2023/04/08 05:59:42;;;;;;;34.17;24.73;;;;;;;2.59;100.00;-18097.34;4966801;28;20130;-78
2023/04/08 06:02:07;;;;;;;36.30;25.92;;;;;;;2.67;100.00;-18099.69;4951715;28;20438;-82
2023/04/08 06:04:33;;;;;;;35.60;25.80;;;;;;;2.70;100.00;-18100.41;4956415;28;20043;-79
2023/04/08 06:06:59;;;;;;;33.30;25.48;;;;;;;2.72;100.00;-18100.94;4953873;28;20067;-79
2023/04/08 06:09:25;;;;;;;32.15;24.30;;;;;;;2.72;100.00;-18100.94;4954999;28;20038;-83
2023/04/08 06:11:51;;;;;;;32.20;23.40;;;;;;;2.76;100.00;-18101.91;4951365;28;20566;-80
2023/04/08 06:14:16;;;;;;;33.72;24.73;;;;;;;2.85;100.00;-18104.53;4968308;28;20522;-81
2023/04/08 06:16:42;;;;;;;29.52;22.67;;;;;;;2.97;100.00;-18107.59;4950943;28;20067;-80
2023/04/08 06:19:07;;;;;;;31.33;22.60;;;;;;;3.07;100.00;-18110.34;4955651;28;20410;-80
2023/04/08 06:21:33;;;;;;;30.40;21.92;;;;;;;3.19;100.00;-18113.66;4956943;28;20081;-81
2023/04/08 06:23:58;;;;;;;30.77;23.08;;;;;;;3.32;100.00;-18117.13;4953812;28;20055;-85
2023/04/08 06:26:23;;;;;;;27.42;21.88;;;;;;;3.32;100.00;-18117.13;4954577;28;20062;-82
2023/04/08 06:28:49;;;;;;;28.50;20.92;;;;;;;3.34;100.00;-18117.69;4949600;28;20045;-80
2023/04/08 06:31:14;;;;;;;27.15;20.90;;;;;;;3.35;100.00;-18117.94;4953675;28;20053;-83
2023/04/08 06:33:40;;;;;;;28.50;19.85;;;;;;;3.38;100.00;-18118.91;4965452;28;20039;-79
2023/04/08 06:36:06;;;;;;;25.13;19.27;;;;;;;3.46;100.00;-18120.84;4948756;28;20063;-81
2023/04/08 06:38:32;;;;;;;26.10;18.30;;;;;;;3.53;100.00;-18122.94;4956262;28;20093;-80
2023/04/08 06:41:05;;;;;;;22.83;17.92;;;;;;;3.63;100.00;-18125.41;4956923;28;20047;-80
2023/04/08 06:43:31;;;;;;;21.48;17.38;;;;;;;3.70;100.00;-18127.34;4952293;28;20046;-85
2023/04/08 06:45:56;;;;;;;25.10;18.83;;;;;;;3.82;100.00;-18130.66;4949040;28;20023;-83
2023/04/08 06:48:27;;;;;;;23.92;16.58;;;;;;;3.94;100.00;-18133.84;4957559;28;20049;-82
2023/04/08 06:50:53;;;;;;;23.13;16.35;;;;;;;4.00;100.00;-18135.50;4954500;28;20399;-82
2023/04/08 06:53:18;;;;;;;23.73;16.45;;;;;;;4.05;100.00;-18136.88;4956891;28;20039;-81
2023/04/08 06:55:44;;;;;;;19.63;15.98;;;;;;;4.13;100.00;-18139.09;4953881;28;20268;-82
2023/04/08 06:58:09;;;;;;;21.42;15.40;;;;;;;4.17;100.00;-18140.19;4952594;28;20043;-85
2023/04/08 07:00:35;;;;;;;23.02;15.65;;;;;;;4.22;100.00;-18141.56;4959492;28;20377;-84
2023/04/08 07:03:01;;;;;;;21.98;16.15;;;;;;;4.27;100.00;-18142.97;4966314;28;20045;-84
2023/04/08 07:05:26;;;;;;;20.20;15.73;;;;;;;4.33;100.00;-18144.34;4961849;28;20129;-84
2023/04/08 07:07:51;;;;;;;21.75;15.88;;;;;;;4.44;100.00;-18147.38;4958787;28;20047;-83
2023/04/08 07:10:17;;;;;;;18.60;14.98;;;;;;;4.56;100.00;-18150.69;4958052;28;20145;-83
2023/04/08 07:12:42;;;;;;;20.73;16.27;;;;;;;4.66;100.00;-18153.47;4960641;28;20110;-83
2023/04/08 07:15:08;;;;;;;19.83;14.85;;;;;;;4.85;100.00;-18158.44;4958959;28;20054;-83
2023/04/08 07:17:33;;;;;;;21.60;15.20;;;;;;;5.06;100.00;-18164.09;4960696;28;20094;-84
2023/04/08 07:19:59;;;;;;;19.85;14.63;;;;;;;5.14;100.00;-18166.28;4959505;28;20718;-83
2023/04/08 07:22:24;;;;;;;18.48;14.65;;;;;;;5.16;100.00;-18166.97;4957830;28;20043;-83
2023/04/08 07:24:50;;;;;;;19.55;14.15;;;;;;;5.26;100.00;-18169.59;4960188;28;20047;-84
2023/04/08 07:27:16;;;;;;;19.13;14.73;;;;;;;5.40;100.00;-18173.34;4958044;28;20039;-83
2023/04/08 07:29:41;;;;;;;19.08;14.90;;;;;;;5.57;100.00;-18177.88;4958756;28;20047;-83
2023/04/08 07:32:06;;;;;;;17.52;13.95;;;;;;;5.68;100.00;-18180.78;4957457;28;20035;-84
2023/04/08 07:34:35;;;;;;;15.60;12.38;;;;;;;5.51;100.00;-18176.38;4955232;28;20043;-84
2023/04/08 07:37:01;;;;;;;19.38;13.63;;;;;;;5.69;100.00;-18181.19;4959118;28;20122;-83
2023/04/08 07:39:26;;;;;;;17.77;13.23;;;;;;;5.79;100.00;-18183.81;4954828;28;20099;-84
2023/04/08 07:41:51;;;;;;;18.05;13.55;;;;;;;5.84;100.00;-18185.34;4957731;28;20276;-84
2023/04/08 07:44:18;;;;;;;17.10;13.20;;;;;;;5.92;100.00;-18187.41;4960858;28;20062;-83
2023/04/08 07:46:45;;;;;;;17.48;12.32;;;;;;;5.98;100.00;-18189.06;4960943;28;20043;-83
2023/04/08 07:49:10;;;;;;;15.30;12.32;;;;;;;6.08;100.00;-18191.81;4960173;28;20054;-84
2023/04/08 07:51:36;;;;;;;14.02;11.52;;;;;;;6.02;100.00;-18190.03;4960720;28;20047;-83
2023/04/08 07:54:01;;;;;;;15.98;12.13;;;;;;;6.13;100.00;-18192.94;4964123;28;20094;-84
2023/04/08 07:56:27;;;;;;;15.68;10.50;;;;;;;6.13;100.00;-18193.06;4963457;28;20097;-83
2023/04/08 07:58:53;;;;;;;14.32;12.10;;;;;;;6.24;100.00;-18195.97;4959202;28;20039;-83
2023/04/08 08:01:20;;;;;;;16.33;11.80;;;;;;;6.28;100.00;-18197.06;4961327;28;20058;-83
2023/04/08 08:03:47;;;;;;;13.65;11.52;;;;;;;6.29;100.00;-18197.47;4958212;28;20059;-84
2023/04/08 08:06:12;;;;;;;15.90;10.45;;;;;;;6.38;100.00;-18199.69;4964085;28;20055;-83
2023/04/08 08:08:38;;;;;;;16.88;11.98;;;;;;;6.48;100.00;-18202.59;4967800;28;20042;-83
2023/04/08 08:11:03;;;;;;;16.30;12.00;;;;;;;6.61;100.00;-18205.88;4961525;28;20039;-82
2023/04/08 08:13:29;;;;;;;16.10;11.82;;;;;;;6.74;100.00;-18209.59;4961002;28;20039;-82
2023/04/08 08:15:54;;;;;;;14.85;10.93;;;;;;;6.96;100.00;-18215.53;4961840;28;20526;-83
2023/04/08 08:18:20;;;;;;;15.52;11.20;;;;;;;7.12;100.00;-18219.81;4956047;28;20047;-82
2023/04/08 08:20:45;;;;;;;12.73;9.95;;;;;;;7.11;100.00;-18219.41;4953356;28;20047;-82
2023/04/08 08:23:11;;;;;;;14.48;10.52;;;;;;;7.10;100.00;-18219.25;4958952;28;20503;-82
2023/04/08 08:25:36;;;;;;;14.75;10.55;;;;;;;7.12;100.00;-18219.66;4953666;28;20051;-83
2023/04/08 08:28:01;;;;;;;14.32;10.57;;;;;;;7.11;100.00;-18219.41;4947910;28;20051;-83
2023/04/08 08:30:27;;;;;;;14.60;10.20;;;;;;;7.12;100.00;-18219.66;4951120;28;20052;-83
2023/04/08 08:32:53;;;;;;;16.25;10.75;;;;;;;7.18;100.00;-18221.47;4958152;28;20051;-82
2023/04/08 08:35:18;;;;;;;14.13;10.10;;;;;;;7.22;100.00;-18222.56;4954314;28;20047;-82
2023/04/08 08:37:43;;;;;;;15.85;11.20;;;;;;;7.29;100.00;-18224.34;4956223;28;20271;-83
2023/04/08 08:40:09;;;;;;;15.30;11.75;;;;;;;7.27;100.00;-18223.81;4954840;28;20411;-82
2023/04/08 08:42:35;;;;;;;14.40;10.93;;;;;;;7.27;100.00;-18223.81;4956424;28;20050;-82
2023/04/08 08:45:02;;;;;;;14.38;10.57;;;;;;;7.33;100.00;-18225.47;4964720;28;20316;-82
2023/04/08 08:47:28;;;;;;;14.38;10.45;;;;;;;7.43;100.00;-18228.06;4953818;28;20503;-82
2023/04/08 08:49:53;;;;;;;15.50;11.52;;;;;;;7.43;100.00;-18228.22;4967117;28;20102;-82
2023/04/08 08:52:18;;;;;;;15.60;11.82;;;;;;;7.36;100.00;-18226.28;4954990;28;20039;-82
2023/04/08 08:54:44;;;;;;;14.27;11.55;;;;;;;7.50;100.00;-18229.88;4956005;28;20055;-82
2023/04/08 08:57:19;;;;;;;15.25;11.55;;;;;;;7.53;100.00;-18230.69;4955169;28;20047;-82
2023/04/08 08:59:46;;;;;;;14.65;11.10;;;;;;;7.57;100.00;-18231.78;4953083;28;20305;-83
2023/04/08 09:02:30;;;;;;;15.45;12.18;;;;;;;7.66;100.00;-18234.28;4952367;28;20051;-83
2023/04/08 09:05:03;;;;;;;17.17;12.38;;;;;;;7.59;100.00;-18232.47;4955126;28;20226;-83
2023/04/08 09:07:30;;;;;;;15.40;12.15;;;;;;;7.70;100.00;-18235.38;4956153;28;20570;-83
2023/04/08 09:09:57;;;;;;;17.17;11.27;;;;;;;7.80;100.00;-18238.13;4951770;28;20043;-83
2023/04/08 09:12:24;;;;;;;15.10;12.30;;;;;;;7.95;100.00;-18242.00;4955249;28;20038;-83
2023/04/08 09:14:50;;;;;;;15.50;12.63;;;;;;;7.89;100.00;-18240.59;4952832;28;20055;-83
2023/04/08 09:17:30;;;;;;;14.75;11.65;;;;;;;8.02;100.00;-18243.91;4950858;28;20155;-83
2023/04/08 09:20:10;;;;;;;15.93;12.30;;;;;;;8.20;100.00;-18248.72;4952484;28;20047;-82
2023/04/08 09:22:58;;;;;;;13.73;11.80;;;;;;;8.19;100.00;-18248.59;4955352;28;20066;-82
2023/04/08 09:25:29;;;;;;;16.73;11.68;;;;;;;8.26;100.00;-18250.53;4964798;28;20043;-83
2023/04/08 09:27:55;;;;;;;14.93;11.55;;;;;;;8.21;100.00;-18249.16;4957954;28;20562;-83
2023/04/08 09:30:22;;;;;;;14.02;10.63;;;;;;;8.34;100.00;-18252.59;4956416;28;20122;-83
2023/04/08 09:32:56;;;;;;;14.07;10.30;;;;;;;8.41;100.00;-18254.38;4951392;28;20053;-83
2023/04/08 09:35:23;;;;;;;13.15;9.52;;;;;;;8.54;100.00;-18258.09;4953199;28;20047;-83
2023/04/08 09:37:49;;;;;;;12.93;9.93;;;;;;;8.58;100.00;-18259.06;4954838;28;20098;-83
2023/04/08 09:40:15;;;;;;;13.05;9.68;;;;;;;8.66;100.00;-18261.28;4953168;28;20105;-83
2023/04/08 09:42:44;;;;;;;15.48;9.68;;;;;;;8.66;100.00;-18261.28;4955944;28;20039;-83
2023/04/08 09:45:11;;;;;;;13.82;9.32;;;;;;;8.75;100.00;-18263.59;4951239;28;20062;-83
2023/04/08 09:47:46;;;;;;;13.45;10.05;;;;;;;8.91;100.00;-18267.88;4960449;28;20045;-82
2023/04/08 09:50:13;;;;;;;13.75;10.38;;;;;;;9.12;100.00;-18273.50;4955836;28;20039;-82
2023/04/08 09:52:44;;;;;;;12.73;9.82;;;;;;;9.12;100.00;-18273.66;4951130;28;20137;-83
2023/04/08 09:55:12;;;;;;;12.73;9.50;;;;;;;9.07;100.00;-18272.28;4950994;28;20411;-83
2023/04/08 09:57:45;;;;;;;13.60;10.40;;;;;;;9.21;100.00;-18276.00;4959809;28;20078;-83
2023/04/08 10:00:14;;;;;;;15.20;10.48;;;;;;;9.20;100.00;-18275.84;4956432;28;20102;-84
2023/04/08 10:02:47;;;;;;;13.98;9.63;;;;;;;9.20;100.00;-18275.72;4953073;28;20043;-82
2023/04/08 10:05:14;;;;;;;13.80;10.10;;;;;;;9.30;100.00;-18278.47;4957024;28;20066;-82
2023/04/08 10:07:41;;;;;;;12.48;9.68;;;;;;;9.32;100.00;-18278.88;4967724;28;20055;-82
2023/04/08 10:10:09;;;;;;;13.05;10.23;;;;;;;9.49;100.00;-18283.69;4955927;28;20054;-82
2023/04/08 10:12:35;;;;;;;14.15;10.57;;;;;;;9.70;100.00;-18289.19;4956448;28;20054;-82
2023/04/08 10:15:25;;;;;;;13.10;9.77;;;;;;;9.73;100.00;-18289.88;4966392;28;20503;-82
2023/04/08 10:18:17;;;;;;;12.43;9.57;;;;;;;9.75;100.00;-18290.44;4951955;28;20567;-82
2023/04/08 10:20:43;;;;;;;13.27;10.55;;;;;;;9.88;100.00;-18294.13;4950505;28;20050;-83
2023/04/08 10:23:12;;;;;;;12.80;9.70;;;;;;;9.95;100.00;-18295.94;4949880;28;20118;-83
2023/04/08 10:25:39;;;;;;;11.55;9.02;;;;;;;9.99;100.00;-18296.88;4953098;28;20190;-83
2023/04/08 10:28:10;;;;;;;13.80;9.65;;;;;;;10.13;100.00;-18300.88;4946800;28;20577;-83
2023/04/08 10:30:38;;;;;;;13.68;10.20;;;;;;;10.10;100.00;-18299.91;4950666;28;20521;-83
2023/04/08 10:33:37;;;;;;;14.75;9.60;;;;;;;10.14;100.00;-18301.16;4952997;28;20051;-83
2023/04/08 10:36:05;;;;;;;14.65;9.00;;;;;;;10.06;100.00;-18298.94;4945203;28;20069;-83
2023/04/08 10:38:31;;;;;;;13.60;9.90;;;;;;;10.10;100.00;-18300.06;4951086;28;20047;-83
2023/04/08 10:40:57;;;;;;;11.20;8.88;;;;;;;10.40;100.00;-18308.03;4949672;28;20043;-83
2023/04/08 10:43:23;;;;;;;13.30;9.98;;;;;;;10.36;100.00;-18306.94;4952110;28;20499;-83
2023/04/08 10:45:50;;;;;;;11.38;9.77;;;;;;;10.41;100.00;-18308.31;4944828;28;20055;-83
2023/04/08 10:48:27;;;;;;;12.85;9.65;;;;;;;10.49;100.00;-18310.50;4940982;28;20047;-83
2023/04/08 10:50:58;;;;;;;12.70;9.90;;;;;;;10.51;100.00;-18311.06;4949932;28;20125;-83
2023/04/08 10:53:32;;;;;;;14.30;10.57;;;;;;;10.70;100.00;-18316.13;4952872;28;21388;-83
2023/04/08 10:56:05;;;;;;;13.73;9.23;;;;;;;11.02;100.00;-18324.66;4951217;28;20419;-85
2023/04/08 10:58:31;;;;;;;13.10;10.00;;;;;;;10.92;100.00;-18322.03;4951658;28;20035;-88
2023/04/08 11:01:03;;;;;;;11.98;9.70;;;;;;;10.91;100.00;-18321.75;4950803;28;20047;-81
2023/04/08 11:03:32;;;;;;;12.88;9.35;;;;;;;10.92;100.00;-18322.03;4951597;28;20050;-82
2023/04/08 11:05:58;;;;;;;12.40;9.57;;;;;;;11.07;100.00;-18326.03;4951147;28;20050;-82
2023/04/08 11:08:32;;;;;;;13.25;9.85;;;;;;;11.12;100.00;-18327.25;4962932;28;20067;-82